Dernières infos :  

20/07/2018 l'Ain en vigilance orange orage cet AM : CLIQUEZ ICI
11/07/2018  Mise à jour des tableaux d'analyses décadaires : rubrique climatologie
02/06/2018 Mise en ligne de la synthèse climatologique de Juin 2018 : 
CLIQUEZ ICI
01/06/2018  Mise à jour des tableaux d'analyses décadaires, mensuelles et annuelles : rubrique climatologie
Retour sur l'orage supercellulaire du 10 juin : CLIQUEZ ICI
  

Si l'entête du tableau ne s'affiche pas correctement, => actualisez la page (F5 avec Internet Explorer, Chrome...).
Utilisez l'ascenseur sur la droite des lignes du tableau pour faire défiler verticalement les jours du mois.

TABLEAU DES DONNEES COMPLETES NOAA de FEVRIER 2018

DATE TEMPERATURE
sous abri
TEMPARATURE 
au sol
VENT  et  Indice de Refroidissement Eolien  PRECIPITATIONS (en mm/m2)
et Intensité
PRESSION ATMOSPHERIQUE (en hPa) HUMIDITE de l'AIR RADIATIONS SOLAIRES (en W/m2)
Mini Moy. Maxi Mini Moy. Maxi Moyen Rafale I.R.E.
Minii
Précip. jour Cumul mois Intensité Maxi Mini Moy. Maxi Mini Moy. Maxi Pic maxi du jour Total jour
01/02/18 2.4° 8.8° 5.7° 10.6° 6.4km/h dir S 35.4km/h dir S 2.1° 13 13 8.2mm/h 1006 1007.6 1010.1 62% 85.1% 94% 564 15 477
02/02/18 -1.6° 2.3° 6.7° -3.9° 1.8° 11.1° 3.7km/h dir ONO 20.9km/h dir NO -2.2° 0.2 13.2 1009 1010.3 1011.5 71% 88.5% 96% 573 22 485
03/02/18 -0.3° 2.6° 5.8° -2.2° 2.2° 8.3° 3.2km/h dir NO 17.7km/h dir NO -0.9° 0.4 13.6 1007.9 1009.2 1010.9 69% 87.1% 95% 691 18 489
04/02/18 -1° 2.4° 7.1° -2.8° 2.1° 10.6° 3.1km/h dir SE 25.7km/h dir ONO -1.7° 0 13.6 1008.6 1013.3 1016.7 59% 83.5% 94% 454 19 458
05/02/18 0.5° 1.6° 2.7° 1.3° 2.8° 4.3km/h dir NO 16.1km/h dir NO -1.8° 4.2 17.8 6.6mm/h 1013.7 1015.7 1017.1 84% 93.3% 96% 113 4 743
06/02/18 0.4° 2.8° 7.8° 2.9° 11.1° 4.5km/h dir ONO 27.4km/h dir O -2.1° 0.4 18.2 1008.1 1010.8 1013.8 81% 92.3% 97% 538 22 350
07/02/18 0.2° 0.6° 1.3° -0.6° 0.3° 1.7° 6.4km/h dir ONO 20.9km/h dir ONO -3.3° 0.8 19 1011.6 1013.9 1017.5 83% 89.1% 93% 156 6 134
08/02/18 0.2° 1.5° 2.8° 1.2° 2.8° 7.1km/h dir NO 17.7km/h dir NO -3.2° 0 19 1017.4 1018.8 1020.1 87% 91.3% 95% 93 4 361
09/02/18 0.8° 2.4° 5.5° 2.2° 7.8° 3.9km/h dir NO 20.9km/h dir S -1° 0.2 19.2 1014.2 1016.8 1019.2 74% 87.4% 95% 573 17 241
10/02/18 0.1° 1.8° 3.9° -2.2° 1.4° 6.1° 2.6km/h dir O 16.1km/h dir NO -0.4° 4.4 23.6 3.6mm/h 1016.9 1019.4 1021 83% 91.4% 96% 524 11 692
11/02/18 -0.1° 2.6° 4.6° -1.1° 2.2° 4.4° 6.1km/h dir S 27.4km/h dir S -2° 5.2 28.8 9.2mm/h 1010.7 1013.7 1018.5 87% 92.6% 96% 190 7 420
12/02/18 -3° 1.9° 5.9° -5° 1.3° 9.4° 4.5km/h dir ONO 24.1km/h dir O -3.4° 1 29.8 0mm/h 1014 1018.1 1020.1 58% 86.6% 96% 680 23 057
13/02/18 -6.2° -0.1° 5.8° -7.8° -0.7° 8.3° 5.3km/h dir SE 33.8km/h dir SSE -6.4° 0 29.8 1009.3 1014.1 1019.8 55% 81.2% 95% 580 30 979
14/02/18 0.8° 2.6° 7.1° -1.7° 9.4° 3.9km/h dir SSE 22.5km/h dir S -1.7° 3 32.8 0.8mm/h 1010.4 1015.1 1016.9 73% 89.8% 96% 587 16 606
15/02/18 3.4° 7.1° 10.6° 2.8° 6.7° 11.1° 9km/h dir SSE 35.4km/h dir SSE 0.4° 4 36.8 3mm/h 1015.3 1018.6 1021.9 78% 89.6% 95% 329 10 030
16/02/18 7.2° 8.3° 9.6° 6.7° 9.4° 4.7km/h dir ONO 19.3km/h dir N 5.7° 4.4 41.2 4.8mm/h 1020.9 1023.2 1025.6 90% 94.1% 96% 225 8 485
17/02/18 4.7° 10.5° 4.4° 7.7° 10.6° 7.4km/h dir SSE 35.4km/h dir S 1.9° 10.2 51.4 12mm/h 1014.4 1018.8 1024.5 87% 93.3% 96% 297 5 258
18/02/18 0.6° 3.3° 4.7° -1.1° 2.8° 4.4° 6.9km/h dir NO 22.5km/h dir NO -0.1° 0 51.4 1021.7 1023.7 1025 81% 87.4% 93% 141 8 131
19/02/18 -1.3° 2.1° 6.3° -3.3° 10.6° 3.4km/h dir NO 12.9km/h dir ONO -2.1° 0.2 51.6 1015.9 1018.9 1021.7 70% 86% 95% 661 30 128
20/02/18 0.4° 3.1° 7.6° -1.1° 2.9° 11.7° 9.3km/h dir NO 30.6km/h dir NO -3.6° 0 51.6 1012.7 1014.1 1015.9 64% 80.6% 90% 738 32 766
21/02/18 -0.8° 5.3° -2.2° 1.6° 7.8° 16.9km/h dir NO 45.1km/h dir ONO -5.9° 0 51.6 1012 1013.7 1014.6 61% 74.1% 86% 610 34 267
22/02/18 -1.2° 0.6° 2.3° -2.8° 0.1° 2.8° 14.5km/h dir NNE 37km/h dir NNE -5.6° 0 51.6 1009.7 1010.4 1012 71% 75.6% 81% 193 12 771
23/02/18 -5.7° -0.4° 4.8° -7.8° -0.9° 8.9° 4.8km/h dir NO 24.1km/h dir NO -5.7° 0 51.6 1009.6 1010.4 1011.2 62% 79.5% 94% 619 29 152
24/02/18 -4.2° -0.3° 5.6° -6.1° -0.8° 8.9° 2.6km/h dir ONO 19.3km/h dir ONO -4.9° 0 51.6 1010.4 1011.3 1012.6 67% 83.6% 93% 499 29 171
25/02/18 -3.4° -0.5° -5° -1° 7.2° 10.6km/h dir NO 43.5km/h dir NO -6.9° 0 51.6 1012.5 1013.8 1015.9 44% 69.7% 94% 722 27 004
26/02/18 -6.1° -3.4° -0.3° -7.2° -3.7° 2.2° 17.7km/h dir NNE 49.9km/h dir NNE -12.1° 0 51.6 1013.9 1015 1016 37% 50.2% 65% 594 43 825
27/02/18 -8.2° -5.2° -1.2° -10.6° -5.6° 1.7° 12.9km/h dir NNE 33.8km/h dir NNE -14.8° 0 51.6 1012.7 1014 1015.2 43% 57.4% 72% 578 42 290
28/02/18 -12.2° -4.9° 0.7° -13.9° -5.3° 2.8° 3.1km/h dir N 14.5km/h dir NO -13.9° 0 51.6 1001.9 1008.8 1013.9 53% 71.8% 89% 589 21 620

RETOUR ACCUEIL


Date de création : 01/03/2018 : 21:56
Catégorie : ANNEE 2018 - MOIS PASSES - FEVRIER 2018
Page lue 192 fois


Réactions à cet article

Personne n'a encore laissé de commentaire.
Soyez donc le premier !